sensor_id;sensor_type;location;lat;lon;timestamp;P1;durP1;ratioP1;P2;durP2;ratioP2
24483;SDS011;12643;51.620;7.548;2023-04-23T00:02:06;50.15;;;35.22;;
24483;SDS011;12643;51.620;7.548;2023-04-23T00:04:37;49.60;;;35.75;;
24483;SDS011;12643;51.620;7.548;2023-04-23T00:07:07;47.80;;;33.15;;
24483;SDS011;12643;51.620;7.548;2023-04-23T00:09:35;49.30;;;34.65;;
24483;SDS011;12643;51.620;7.548;2023-04-23T00:12:05;52.35;;;35.58;;
24483;SDS011;12643;51.620;7.548;2023-04-23T00:14:34;50.88;;;35.72;;
24483;SDS011;12643;51.620;7.548;2023-04-23T00:17:03;51.08;;;35.17;;
24483;SDS011;12643;51.620;7.548;2023-04-23T00:19:31;52.17;;;34.38;;
24483;SDS011;12643;51.620;7.548;2023-04-23T00:21:59;52.05;;;36.45;;
24483;SDS011;12643;51.620;7.548;2023-04-23T00:24:29;49.50;;;34.63;;
24483;SDS011;12643;51.620;7.548;2023-04-23T00:27:00;47.42;;;33.67;;
24483;SDS011;12643;51.620;7.548;2023-04-23T00:29:28;47.25;;;34.22;;
24483;SDS011;12643;51.620;7.548;2023-04-23T00:31:56;50.20;;;34.65;;
24483;SDS011;12643;51.620;7.548;2023-04-23T00:34:28;48.53;;;33.97;;
24483;SDS011;12643;51.620;7.548;2023-04-23T00:36:56;50.20;;;34.75;;
24483;SDS011;12643;51.620;7.548;2023-04-23T00:39:24;47.80;;;32.33;;
24483;SDS011;12643;51.620;7.548;2023-04-23T00:41:55;48.15;;;33.42;;
24483;SDS011;12643;51.620;7.548;2023-04-23T00:44:24;49.65;;;33.28;;
24483;SDS011;12643;51.620;7.548;2023-04-23T00:46:52;46.95;;;32.78;;
24483;SDS011;12643;51.620;7.548;2023-04-23T00:49:21;47.13;;;32.22;;
24483;SDS011;12643;51.620;7.548;2023-04-23T00:51:50;51.20;;;34.05;;
24483;SDS011;12643;51.620;7.548;2023-04-23T00:54:18;44.90;;;31.77;;
24483;SDS011;12643;51.620;7.548;2023-04-23T00:56:46;46.92;;;32.03;;
24483;SDS011;12643;51.620;7.548;2023-04-23T00:59:19;46.97;;;33.28;;
24483;SDS011;12643;51.620;7.548;2023-04-23T01:01:47;46.53;;;33.05;;
24483;SDS011;12643;51.620;7.548;2023-04-23T01:04:15;50.72;;;34.50;;
24483;SDS011;12643;51.620;7.548;2023-04-23T01:06:45;49.80;;;35.05;;
24483;SDS011;12643;51.620;7.548;2023-04-23T01:09:14;51.55;;;35.08;;
24483;SDS011;12643;51.620;7.548;2023-04-23T01:11:46;51.17;;;36.28;;
24483;SDS011;12643;51.620;7.548;2023-04-23T01:14:15;55.22;;;35.95;;
24483;SDS011;12643;51.620;7.548;2023-04-23T01:16:45;50.70;;;34.60;;
24483;SDS011;12643;51.620;7.548;2023-04-23T01:19:12;46.13;;;31.17;;
24483;SDS011;12643;51.620;7.548;2023-04-23T01:21:40;44.70;;;31.48;;
24483;SDS011;12643;51.620;7.548;2023-04-23T01:24:10;52.60;;;34.80;;
24483;SDS011;12643;51.620;7.548;2023-04-23T01:26:38;49.05;;;34.00;;
24483;SDS011;12643;51.620;7.548;2023-04-23T01:29:06;50.50;;;35.53;;
24483;SDS011;12643;51.620;7.548;2023-04-23T01:31:35;53.30;;;38.05;;
24483;SDS011;12643;51.620;7.548;2023-04-23T01:34:03;48.47;;;35.28;;
24483;SDS011;12643;51.620;7.548;2023-04-23T01:36:32;53.72;;;37.10;;
24483;SDS011;12643;51.620;7.548;2023-04-23T01:39:01;50.10;;;36.25;;
24483;SDS011;12643;51.620;7.548;2023-04-23T01:41:31;55.50;;;37.90;;
24483;SDS011;12643;51.620;7.548;2023-04-23T01:43:59;59.42;;;38.88;;
24483;SDS011;12643;51.620;7.548;2023-04-23T01:46:28;59.33;;;40.05;;
24483;SDS011;12643;51.620;7.548;2023-04-23T01:48:56;52.83;;;36.88;;
24483;SDS011;12643;51.620;7.548;2023-04-23T01:51:24;59.78;;;40.50;;
24483;SDS011;12643;51.620;7.548;2023-04-23T01:53:52;60.40;;;39.53;;
24483;SDS011;12643;51.620;7.548;2023-04-23T01:56:21;61.70;;;41.03;;
24483;SDS011;12643;51.620;7.548;2023-04-23T01:58:53;56.30;;;38.78;;
24483;SDS011;12643;51.620;7.548;2023-04-23T02:01:20;59.05;;;39.63;;
24483;SDS011;12643;51.620;7.548;2023-04-23T02:03:49;61.40;;;39.20;;
24483;SDS011;12643;51.620;7.548;2023-04-23T02:06:17;58.97;;;38.05;;
24483;SDS011;12643;51.620;7.548;2023-04-23T02:08:45;64.05;;;40.38;;
24483;SDS011;12643;51.620;7.548;2023-04-23T02:11:14;63.45;;;41.95;;
24483;SDS011;12643;51.620;7.548;2023-04-23T02:13:42;62.22;;;41.63;;
24483;SDS011;12643;51.620;7.548;2023-04-23T02:16:11;64.70;;;43.08;;
24483;SDS011;12643;51.620;7.548;2023-04-23T02:18:39;62.78;;;40.17;;
24483;SDS011;12643;51.620;7.548;2023-04-23T02:21:07;63.50;;;42.13;;
24483;SDS011;12643;51.620;7.548;2023-04-23T02:23:35;63.05;;;39.58;;
24483;SDS011;12643;51.620;7.548;2023-04-23T02:26:05;59.70;;;39.60;;
24483;SDS011;12643;51.620;7.548;2023-04-23T02:28:33;62.20;;;40.67;;
24483;SDS011;12643;51.620;7.548;2023-04-23T02:31:01;60.15;;;38.97;;
24483;SDS011;12643;51.620;7.548;2023-04-23T02:33:30;58.67;;;39.35;;
24483;SDS011;12643;51.620;7.548;2023-04-23T02:35:58;58.53;;;39.60;;
24483;SDS011;12643;51.620;7.548;2023-04-23T02:38:28;57.95;;;38.38;;
24483;SDS011;12643;51.620;7.548;2023-04-23T02:40:55;62.67;;;40.35;;
24483;SDS011;12643;51.620;7.548;2023-04-23T02:43:23;58.85;;;38.83;;
24483;SDS011;12643;51.620;7.548;2023-04-23T02:45:52;59.35;;;38.00;;
24483;SDS011;12643;51.620;7.548;2023-04-23T02:48:20;59.22;;;37.67;;
24483;SDS011;12643;51.620;7.548;2023-04-23T02:50:51;59.15;;;39.13;;
24483;SDS011;12643;51.620;7.548;2023-04-23T02:53:19;61.40;;;39.78;;
24483;SDS011;12643;51.620;7.548;2023-04-23T02:55:47;60.50;;;40.20;;
24483;SDS011;12643;51.620;7.548;2023-04-23T02:58:15;59.13;;;39.33;;
24483;SDS011;12643;51.620;7.548;2023-04-23T03:00:43;59.00;;;38.63;;
24483;SDS011;12643;51.620;7.548;2023-04-23T03:03:11;60.70;;;39.50;;
24483;SDS011;12643;51.620;7.548;2023-04-23T03:05:39;58.53;;;37.28;;
24483;SDS011;12643;51.620;7.548;2023-04-23T03:08:08;54.83;;;37.53;;
24483;SDS011;12643;51.620;7.548;2023-04-23T03:10:36;55.10;;;36.05;;
24483;SDS011;12643;51.620;7.548;2023-04-23T03:13:03;57.17;;;37.83;;
24483;SDS011;12643;51.620;7.548;2023-04-23T03:15:31;54.25;;;36.20;;
24483;SDS011;12643;51.620;7.548;2023-04-23T03:17:59;55.47;;;36.90;;
24483;SDS011;12643;51.620;7.548;2023-04-23T03:20:28;53.45;;;35.88;;
24483;SDS011;12643;51.620;7.548;2023-04-23T03:22:56;54.42;;;35.70;;
24483;SDS011;12643;51.620;7.548;2023-04-23T03:25:25;59.22;;;37.28;;
24483;SDS011;12643;51.620;7.548;2023-04-23T03:27:53;61.05;;;38.83;;
24483;SDS011;12643;51.620;7.548;2023-04-23T03:30:21;63.42;;;39.55;;
24483;SDS011;12643;51.620;7.548;2023-04-23T03:35:21;57.53;;;37.63;;
24483;SDS011;12643;51.620;7.548;2023-04-23T03:37:49;59.47;;;38.45;;
24483;SDS011;12643;51.620;7.548;2023-04-23T03:40:17;56.20;;;36.92;;
24483;SDS011;12643;51.620;7.548;2023-04-23T03:42:47;57.47;;;37.70;;
24483;SDS011;12643;51.620;7.548;2023-04-23T03:45:15;65.07;;;39.33;;
24483;SDS011;12643;51.620;7.548;2023-04-23T03:47:42;68.13;;;41.38;;
24483;SDS011;12643;51.620;7.548;2023-04-23T03:50:10;62.17;;;39.20;;
24483;SDS011;12643;51.620;7.548;2023-04-23T03:52:38;60.42;;;39.33;;
24483;SDS011;12643;51.620;7.548;2023-04-23T03:55:06;52.85;;;37.10;;
24483;SDS011;12643;51.620;7.548;2023-04-23T03:57:35;54.08;;;35.95;;
24483;SDS011;12643;51.620;7.548;2023-04-23T04:00:05;55.95;;;35.88;;
24483;SDS011;12643;51.620;7.548;2023-04-23T04:02:36;50.25;;;34.55;;
24483;SDS011;12643;51.620;7.548;2023-04-23T04:05:24;50.45;;;33.28;;
24483;SDS011;12643;51.620;7.548;2023-04-23T04:07:52;50.03;;;32.28;;
24483;SDS011;12643;51.620;7.548;2023-04-23T04:10:20;51.45;;;32.92;;
24483;SDS011;12643;51.620;7.548;2023-04-23T04:12:48;50.42;;;32.10;;
24483;SDS011;12643;51.620;7.548;2023-04-23T04:15:18;49.33;;;33.50;;
24483;SDS011;12643;51.620;7.548;2023-04-23T04:17:46;50.38;;;33.65;;
24483;SDS011;12643;51.620;7.548;2023-04-23T04:20:15;46.08;;;30.90;;
24483;SDS011;12643;51.620;7.548;2023-04-23T04:22:43;47.67;;;31.13;;
24483;SDS011;12643;51.620;7.548;2023-04-23T04:25:11;43.33;;;30.95;;
24483;SDS011;12643;51.620;7.548;2023-04-23T04:27:39;45.20;;;30.38;;
24483;SDS011;12643;51.620;7.548;2023-04-23T04:30:08;41.03;;;28.90;;
24483;SDS011;12643;51.620;7.548;2023-04-23T04:32:40;43.72;;;30.10;;
24483;SDS011;12643;51.620;7.548;2023-04-23T04:35:10;48.40;;;31.63;;
24483;SDS011;12643;51.620;7.548;2023-04-23T04:37:38;43.97;;;28.67;;
24483;SDS011;12643;51.620;7.548;2023-04-23T04:40:08;39.45;;;26.55;;
24483;SDS011;12643;51.620;7.548;2023-04-23T04:42:37;39.28;;;27.80;;
24483;SDS011;12643;51.620;7.548;2023-04-23T04:45:05;43.60;;;28.05;;
24483;SDS011;12643;51.620;7.548;2023-04-23T04:47:34;40.75;;;28.83;;
24483;SDS011;12643;51.620;7.548;2023-04-23T04:50:05;40.78;;;28.92;;
24483;SDS011;12643;51.620;7.548;2023-04-23T04:52:34;44.17;;;30.00;;
24483;SDS011;12643;51.620;7.548;2023-04-23T04:55:02;42.00;;;28.48;;
24483;SDS011;12643;51.620;7.548;2023-04-23T04:57:31;38.38;;;26.83;;
24483;SDS011;12643;51.620;7.548;2023-04-23T05:00:00;39.25;;;26.65;;
24483;SDS011;12643;51.620;7.548;2023-04-23T05:02:44;39.58;;;26.02;;
24483;SDS011;12643;51.620;7.548;2023-04-23T05:05:15;37.13;;;26.90;;
24483;SDS011;12643;51.620;7.548;2023-04-23T05:07:43;39.55;;;28.23;;
24483;SDS011;12643;51.620;7.548;2023-04-23T05:10:11;38.47;;;27.30;;
24483;SDS011;12643;51.620;7.548;2023-04-23T05:12:41;35.25;;;25.42;;
24483;SDS011;12643;51.620;7.548;2023-04-23T05:15:10;40.22;;;28.00;;
24483;SDS011;12643;51.620;7.548;2023-04-23T05:17:39;38.50;;;27.45;;
24483;SDS011;12643;51.620;7.548;2023-04-23T05:20:08;35.53;;;24.08;;
24483;SDS011;12643;51.620;7.548;2023-04-23T05:22:38;34.72;;;24.92;;
24483;SDS011;12643;51.620;7.548;2023-04-23T05:27:36;35.20;;;25.50;;
24483;SDS011;12643;51.620;7.548;2023-04-23T05:30:05;35.08;;;24.38;;
24483;SDS011;12643;51.620;7.548;2023-04-23T05:32:35;36.88;;;26.70;;
24483;SDS011;12643;51.620;7.548;2023-04-23T05:35:05;37.22;;;26.15;;
24483;SDS011;12643;51.620;7.548;2023-04-23T05:37:33;36.80;;;25.35;;
24483;SDS011;12643;51.620;7.548;2023-04-23T05:40:04;35.53;;;25.38;;
24483;SDS011;12643;51.620;7.548;2023-04-23T05:42:34;34.15;;;24.83;;
24483;SDS011;12643;51.620;7.548;2023-04-23T05:45:03;34.47;;;23.83;;
24483;SDS011;12643;51.620;7.548;2023-04-23T05:47:31;36.70;;;25.45;;
24483;SDS011;12643;51.620;7.548;2023-04-23T05:49:59;37.50;;;26.02;;
24483;SDS011;12643;51.620;7.548;2023-04-23T05:52:27;35.00;;;25.13;;
24483;SDS011;12643;51.620;7.548;2023-04-23T05:54:57;35.30;;;26.50;;
24483;SDS011;12643;51.620;7.548;2023-04-23T05:57:27;36.70;;;25.30;;
24483;SDS011;12643;51.620;7.548;2023-04-23T05:59:55;31.40;;;23.55;;
24483;SDS011;12643;51.620;7.548;2023-04-23T06:02:27;37.72;;;27.33;;
24483;SDS011;12643;51.620;7.548;2023-04-23T06:04:55;34.67;;;25.52;;
24483;SDS011;12643;51.620;7.548;2023-04-23T06:07:24;32.00;;;24.08;;
24483;SDS011;12643;51.620;7.548;2023-04-23T06:09:52;33.30;;;24.83;;
24483;SDS011;12643;51.620;7.548;2023-04-23T06:12:20;35.10;;;24.42;;
24483;SDS011;12643;51.620;7.548;2023-04-23T06:14:53;37.72;;;26.23;;
24483;SDS011;12643;51.620;7.548;2023-04-23T06:17:22;32.83;;;25.42;;
24483;SDS011;12643;51.620;7.548;2023-04-23T06:19:50;33.05;;;24.17;;
24483;SDS011;12643;51.620;7.548;2023-04-23T06:22:18;34.70;;;27.10;;
24483;SDS011;12643;51.620;7.548;2023-04-23T06:24:45;33.05;;;26.23;;
24483;SDS011;12643;51.620;7.548;2023-04-23T06:27:15;30.80;;;24.58;;
24483;SDS011;12643;51.620;7.548;2023-04-23T06:29:43;34.17;;;26.08;;
24483;SDS011;12643;51.620;7.548;2023-04-23T06:32:12;34.50;;;26.23;;
24483;SDS011;12643;51.620;7.548;2023-04-23T06:34:40;31.38;;;24.27;;
24483;SDS011;12643;51.620;7.548;2023-04-23T06:37:08;33.33;;;23.92;;
24483;SDS011;12643;51.620;7.548;2023-04-23T06:39:36;32.08;;;25.45;;
24483;SDS011;12643;51.620;7.548;2023-04-23T06:42:04;30.38;;;23.38;;
24483;SDS011;12643;51.620;7.548;2023-04-23T06:44:32;30.80;;;23.13;;
24483;SDS011;12643;51.620;7.548;2023-04-23T06:47:00;29.55;;;21.48;;
24483;SDS011;12643;51.620;7.548;2023-04-23T06:49:32;26.80;;;20.77;;
24483;SDS011;12643;51.620;7.548;2023-04-23T06:52:00;21.35;;;17.45;;
24483;SDS011;12643;51.620;7.548;2023-04-23T06:54:28;19.58;;;15.77;;
24483;SDS011;12643;51.620;7.548;2023-04-23T06:56:56;20.65;;;15.95;;
24483;SDS011;12643;51.620;7.548;2023-04-23T06:59:24;18.42;;;15.27;;
24483;SDS011;12643;51.620;7.548;2023-04-23T07:01:53;18.95;;;15.55;;
24483;SDS011;12643;51.620;7.548;2023-04-23T07:04:24;15.57;;;12.93;;
24483;SDS011;12643;51.620;7.548;2023-04-23T07:06:53;15.25;;;12.02;;
24483;SDS011;12643;51.620;7.548;2023-04-23T07:09:21;15.95;;;12.50;;
24483;SDS011;12643;51.620;7.548;2023-04-23T07:11:50;17.17;;;11.70;;
24483;SDS011;12643;51.620;7.548;2023-04-23T07:14:18;12.10;;;10.23;;
24483;SDS011;12643;51.620;7.548;2023-04-23T07:16:47;11.55;;;9.32;;
24483;SDS011;12643;51.620;7.548;2023-04-23T07:19:15;12.98;;;9.73;;
24483;SDS011;12643;51.620;7.548;2023-04-23T07:21:43;13.43;;;9.10;;
24483;SDS011;12643;51.620;7.548;2023-04-23T07:24:13;12.35;;;9.82;;
24483;SDS011;12643;51.620;7.548;2023-04-23T07:26:41;11.52;;;9.10;;
24483;SDS011;12643;51.620;7.548;2023-04-23T07:29:09;11.13;;;9.20;;
24483;SDS011;12643;51.620;7.548;2023-04-23T07:31:38;10.05;;;8.13;;
24483;SDS011;12643;51.620;7.548;2023-04-23T07:34:09;14.85;;;8.63;;
24483;SDS011;12643;51.620;7.548;2023-04-23T07:36:38;10.55;;;8.75;;
24483;SDS011;12643;51.620;7.548;2023-04-23T07:39:06;12.73;;;9.30;;
24483;SDS011;12643;51.620;7.548;2023-04-23T07:41:35;10.13;;;8.30;;
24483;SDS011;12643;51.620;7.548;2023-04-23T07:44:03;9.65;;;8.40;;
24483;SDS011;12643;51.620;7.548;2023-04-23T07:46:31;11.63;;;9.27;;
24483;SDS011;12643;51.620;7.548;2023-04-23T07:48:59;10.80;;;8.73;;
24483;SDS011;12643;51.620;7.548;2023-04-23T07:51:27;10.10;;;8.10;;
24483;SDS011;12643;51.620;7.548;2023-04-23T07:53:56;9.45;;;7.53;;
24483;SDS011;12643;51.620;7.548;2023-04-23T07:56:24;11.40;;;7.95;;
24483;SDS011;12643;51.620;7.548;2023-04-23T07:58:54;14.18;;;8.38;;
24483;SDS011;12643;51.620;7.548;2023-04-23T08:01:22;9.80;;;7.82;;
24483;SDS011;12643;51.620;7.548;2023-04-23T08:03:52;8.52;;;7.40;;
24483;SDS011;12643;51.620;7.548;2023-04-23T08:06:20;11.43;;;7.22;;
24483;SDS011;12643;51.620;7.548;2023-04-23T08:08:49;9.10;;;7.40;;
24483;SDS011;12643;51.620;7.548;2023-04-23T08:11:17;10.38;;;7.45;;
24483;SDS011;12643;51.620;7.548;2023-04-23T08:13:45;9.02;;;6.65;;
24483;SDS011;12643;51.620;7.548;2023-04-23T08:16:15;10.63;;;7.32;;
24483;SDS011;12643;51.620;7.548;2023-04-23T08:18:43;8.60;;;6.55;;
24483;SDS011;12643;51.620;7.548;2023-04-23T08:21:12;8.07;;;6.45;;
24483;SDS011;12643;51.620;7.548;2023-04-23T08:23:40;9.82;;;7.10;;
24483;SDS011;12643;51.620;7.548;2023-04-23T08:26:08;10.93;;;6.38;;
24483;SDS011;12643;51.620;7.548;2023-04-23T08:28:37;11.25;;;6.07;;
24483;SDS011;12643;51.620;7.548;2023-04-23T08:31:06;9.63;;;5.93;;
24483;SDS011;12643;51.620;7.548;2023-04-23T08:33:45;8.20;;;5.65;;
24483;SDS011;12643;51.620;7.548;2023-04-23T08:36:15;10.18;;;8.07;;
24483;SDS011;12643;51.620;7.548;2023-04-23T08:38:44;10.27;;;5.85;;
24483;SDS011;12643;51.620;7.548;2023-04-23T08:41:12;7.40;;;5.95;;
24483;SDS011;12643;51.620;7.548;2023-04-23T08:43:43;7.32;;;5.45;;
24483;SDS011;12643;51.620;7.548;2023-04-23T08:46:16;10.65;;;6.03;;
24483;SDS011;12643;51.620;7.548;2023-04-23T08:48:46;5.67;;;5.10;;
24483;SDS011;12643;51.620;7.548;2023-04-23T08:51:18;8.52;;;4.90;;
24483;SDS011;12643;51.620;7.548;2023-04-23T08:53:53;7.97;;;4.90;;
24483;SDS011;12643;51.620;7.548;2023-04-23T08:56:24;9.57;;;4.60;;
24483;SDS011;12643;51.620;7.548;2023-04-23T08:58:53;8.05;;;5.30;;
24483;SDS011;12643;51.620;7.548;2023-04-23T09:01:22;10.68;;;5.60;;
24483;SDS011;12643;51.620;7.548;2023-04-23T09:03:52;9.32;;;4.93;;
24483;SDS011;12643;51.620;7.548;2023-04-23T09:06:21;11.25;;;4.85;;
24483;SDS011;12643;51.620;7.548;2023-04-23T09:09:01;7.82;;;4.95;;
24483;SDS011;12643;51.620;7.548;2023-04-23T09:11:33;7.07;;;4.55;;
24483;SDS011;12643;51.620;7.548;2023-04-23T09:14:03;7.65;;;3.83;;
24483;SDS011;12643;51.620;7.548;2023-04-23T09:16:31;7.55;;;3.67;;
24483;SDS011;12643;51.620;7.548;2023-04-23T09:19:03;6.43;;;3.60;;
24483;SDS011;12643;51.620;7.548;2023-04-23T09:21:36;6.07;;;3.78;;
24483;SDS011;12643;51.620;7.548;2023-04-23T09:24:08;5.88;;;3.03;;
24483;SDS011;12643;51.620;7.548;2023-04-23T09:26:43;8.75;;;3.20;;
24483;SDS011;12643;51.620;7.548;2023-04-23T09:29:14;5.30;;;2.83;;
24483;SDS011;12643;51.620;7.548;2023-04-23T09:31:45;4.50;;;2.70;;
24483;SDS011;12643;51.620;7.548;2023-04-23T09:34:16;9.10;;;3.22;;
24483;SDS011;12643;51.620;7.548;2023-04-23T09:36:45;6.90;;;3.38;;
24483;SDS011;12643;51.620;7.548;2023-04-23T09:39:15;9.67;;;2.77;;
24483;SDS011;12643;51.620;7.548;2023-04-23T09:41:44;6.57;;;2.97;;
24483;SDS011;12643;51.620;7.548;2023-04-23T09:44:16;6.57;;;3.10;;
24483;SDS011;12643;51.620;7.548;2023-04-23T09:46:46;4.90;;;2.40;;
24483;SDS011;12643;51.620;7.548;2023-04-23T09:49:22;6.13;;;3.53;;
24483;SDS011;12643;51.620;7.548;2023-04-23T09:51:50;11.25;;;3.22;;
24483;SDS011;12643;51.620;7.548;2023-04-23T09:54:20;7.22;;;3.97;;
24483;SDS011;12643;51.620;7.548;2023-04-23T09:59:21;4.22;;;3.00;;
24483;SDS011;12643;51.620;7.548;2023-04-23T10:01:51;8.50;;;2.80;;
24483;SDS011;12643;51.620;7.548;2023-04-23T10:04:21;9.13;;;2.90;;
24483;SDS011;12643;51.620;7.548;2023-04-23T10:06:52;8.75;;;3.25;;
24483;SDS011;12643;51.620;7.548;2023-04-23T10:09:21;4.07;;;3.00;;
24483;SDS011;12643;51.620;7.548;2023-04-23T10:11:50;5.50;;;2.55;;
24483;SDS011;12643;51.620;7.548;2023-04-23T10:14:19;4.72;;;2.60;;
24483;SDS011;12643;51.620;7.548;2023-04-23T10:16:49;3.35;;;2.53;;
24483;SDS011;12643;51.620;7.548;2023-04-23T10:19:23;6.40;;;2.60;;
24483;SDS011;12643;51.620;7.548;2023-04-23T10:21:52;9.70;;;3.00;;
24483;SDS011;12643;51.620;7.548;2023-04-23T10:24:22;10.70;;;3.25;;
24483;SDS011;12643;51.620;7.548;2023-04-23T10:26:54;4.90;;;2.67;;
24483;SDS011;12643;51.620;7.548;2023-04-23T10:29:26;3.92;;;2.53;;
24483;SDS011;12643;51.620;7.548;2023-04-23T10:31:55;7.40;;;2.75;;
24483;SDS011;12643;51.620;7.548;2023-04-23T10:34:29;6.05;;;2.53;;
24483;SDS011;12643;51.620;7.548;2023-04-23T10:36:59;9.57;;;2.88;;
24483;SDS011;12643;51.620;7.548;2023-04-23T10:39:30;10.35;;;2.72;;
24483;SDS011;12643;51.620;7.548;2023-04-23T10:41:59;8.82;;;2.20;;
24483;SDS011;12643;51.620;7.548;2023-04-23T10:44:31;5.65;;;2.00;;
24483;SDS011;12643;51.620;7.548;2023-04-23T10:47:01;13.07;;;2.28;;
24483;SDS011;12643;51.620;7.548;2023-04-23T10:49:36;9.07;;;2.40;;
24483;SDS011;12643;51.620;7.548;2023-04-23T10:52:07;8.63;;;2.00;;
24483;SDS011;12643;51.620;7.548;2023-04-23T10:54:39;4.05;;;2.05;;
24483;SDS011;12643;51.620;7.548;2023-04-23T10:57:09;4.10;;;1.55;;
24483;SDS011;12643;51.620;7.548;2023-04-23T10:59:38;6.88;;;2.00;;
24483;SDS011;12643;51.620;7.548;2023-04-23T11:02:08;6.00;;;2.03;;
24483;SDS011;12643;51.620;7.548;2023-04-23T11:04:45;7.28;;;2.40;;
24483;SDS011;12643;51.620;7.548;2023-04-23T11:07:19;6.07;;;2.05;;
24483;SDS011;12643;51.620;7.548;2023-04-23T11:09:51;3.88;;;1.83;;
24483;SDS011;12643;51.620;7.548;2023-04-23T11:12:35;2.83;;;1.50;;
24483;SDS011;12643;51.620;7.548;2023-04-23T11:15:10;5.47;;;2.00;;
24483;SDS011;12643;51.620;7.548;2023-04-23T11:20:30;8.88;;;2.30;;
24483;SDS011;12643;51.620;7.548;2023-04-23T11:23:02;2.38;;;1.50;;
24483;SDS011;12643;51.620;7.548;2023-04-23T11:25:32;2.88;;;1.73;;
24483;SDS011;12643;51.620;7.548;2023-04-23T11:28:05;6.13;;;1.75;;
24483;SDS011;12643;51.620;7.548;2023-04-23T11:30:34;7.30;;;1.92;;
24483;SDS011;12643;51.620;7.548;2023-04-23T11:33:02;2.95;;;1.52;;
24483;SDS011;12643;51.620;7.548;2023-04-23T11:35:32;4.55;;;1.45;;
24483;SDS011;12643;51.620;7.548;2023-04-23T11:38:07;6.20;;;1.67;;
24483;SDS011;12643;51.620;7.548;2023-04-23T11:40:35;4.90;;;1.30;;
24483;SDS011;12643;51.620;7.548;2023-04-23T11:43:04;3.15;;;1.65;;
24483;SDS011;12643;51.620;7.548;2023-04-23T11:45:34;4.28;;;1.80;;
24483;SDS011;12643;51.620;7.548;2023-04-23T11:48:02;3.05;;;2.40;;
24483;SDS011;12643;51.620;7.548;2023-04-23T11:50:32;2.67;;;1.65;;
24483;SDS011;12643;51.620;7.548;2023-04-23T11:53:03;4.85;;;1.60;;
24483;SDS011;12643;51.620;7.548;2023-04-23T11:55:35;4.10;;;2.17;;
24483;SDS011;12643;51.620;7.548;2023-04-23T11:58:09;2.75;;;1.80;;
24483;SDS011;12643;51.620;7.548;2023-04-23T12:00:38;6.53;;;1.65;;
24483;SDS011;12643;51.620;7.548;2023-04-23T12:03:08;4.85;;;1.85;;
24483;SDS011;12643;51.620;7.548;2023-04-23T12:05:40;2.72;;;1.55;;
24483;SDS011;12643;51.620;7.548;2023-04-23T12:08:14;4.28;;;1.60;;
24483;SDS011;12643;51.620;7.548;2023-04-23T12:10:44;3.40;;;1.85;;
24483;SDS011;12643;51.620;7.548;2023-04-23T12:13:17;8.23;;;1.70;;
24483;SDS011;12643;51.620;7.548;2023-04-23T12:15:49;2.92;;;1.70;;
24483;SDS011;12643;51.620;7.548;2023-04-23T12:18:25;3.08;;;1.58;;
24483;SDS011;12643;51.620;7.548;2023-04-23T12:20:56;2.83;;;1.30;;
24483;SDS011;12643;51.620;7.548;2023-04-23T12:23:30;3.70;;;1.65;;
24483;SDS011;12643;51.620;7.548;2023-04-23T12:26:01;5.35;;;1.70;;
24483;SDS011;12643;51.620;7.548;2023-04-23T12:28:30;2.83;;;1.63;;
24483;SDS011;12643;51.620;7.548;2023-04-23T12:30:59;2.33;;;1.58;;
24483;SDS011;12643;51.620;7.548;2023-04-23T12:33:27;25.08;;;10.10;;
24483;SDS011;12643;51.620;7.548;2023-04-23T12:35:59;33.97;;;11.57;;
24483;SDS011;12643;51.620;7.548;2023-04-23T12:38:29;5.57;;;2.08;;
24483;SDS011;12643;51.620;7.548;2023-04-23T12:41:00;15.57;;;6.20;;
24483;SDS011;12643;51.620;7.548;2023-04-23T12:43:34;3.05;;;2.00;;
24483;SDS011;12643;51.620;7.548;2023-04-23T12:46:02;2.90;;;1.90;;
24483;SDS011;12643;51.620;7.548;2023-04-23T12:48:32;3.75;;;2.03;;
24483;SDS011;12643;51.620;7.548;2023-04-23T12:51:02;4.22;;;2.40;;
24483;SDS011;12643;51.620;7.548;2023-04-23T12:53:31;2.08;;;1.92;;
24483;SDS011;12643;51.620;7.548;2023-04-23T12:55:59;4.90;;;1.88;;
24483;SDS011;12643;51.620;7.548;2023-04-23T12:58:28;2.13;;;1.65;;
24483;SDS011;12643;51.620;7.548;2023-04-23T13:00:58;3.65;;;1.40;;
24483;SDS011;12643;51.620;7.548;2023-04-23T13:03:26;1.90;;;1.40;;
24483;SDS011;12643;51.620;7.548;2023-04-23T13:05:54;1.95;;;1.40;;
24483;SDS011;12643;51.620;7.548;2023-04-23T13:08:29;2.97;;;1.13;;
24483;SDS011;12643;51.620;7.548;2023-04-23T13:10:58;4.88;;;1.45;;
24483;SDS011;12643;51.620;7.548;2023-04-23T13:13:27;4.57;;;1.48;;
24483;SDS011;12643;51.620;7.548;2023-04-23T13:15:56;4.25;;;1.60;;
24483;SDS011;12643;51.620;7.548;2023-04-23T13:18:25;4.63;;;1.58;;
24483;SDS011;12643;51.620;7.548;2023-04-23T13:20:55;2.25;;;1.65;;
24483;SDS011;12643;51.620;7.548;2023-04-23T13:23:26;2.30;;;1.50;;
24483;SDS011;12643;51.620;7.548;2023-04-23T13:26:07;2.67;;;1.50;;
24483;SDS011;12643;51.620;7.548;2023-04-23T13:28:36;3.25;;;1.70;;
24483;SDS011;12643;51.620;7.548;2023-04-23T13:31:04;3.10;;;1.30;;
24483;SDS011;12643;51.620;7.548;2023-04-23T13:33:32;2.25;;;1.75;;
24483;SDS011;12643;51.620;7.548;2023-04-23T13:36:01;3.72;;;1.40;;
24483;SDS011;12643;51.620;7.548;2023-04-23T13:38:30;2.38;;;1.30;;
24483;SDS011;12643;51.620;7.548;2023-04-23T13:40:59;1.58;;;1.10;;
24483;SDS011;12643;51.620;7.548;2023-04-23T13:43:27;2.50;;;1.52;;
24483;SDS011;12643;51.620;7.548;2023-04-23T13:45:58;4.40;;;1.70;;
24483;SDS011;12643;51.620;7.548;2023-04-23T13:48:26;4.28;;;2.63;;
24483;SDS011;12643;51.620;7.548;2023-04-23T13:50:57;3.03;;;1.50;;
24483;SDS011;12643;51.620;7.548;2023-04-23T13:53:28;5.10;;;1.50;;
24483;SDS011;12643;51.620;7.548;2023-04-23T13:56:00;2.95;;;1.42;;
24483;SDS011;12643;51.620;7.548;2023-04-23T13:58:28;2.80;;;1.40;;
24483;SDS011;12643;51.620;7.548;2023-04-23T14:00:59;4.20;;;1.02;;
24483;SDS011;12643;51.620;7.548;2023-04-23T14:03:33;2.47;;;1.13;;
24483;SDS011;12643;51.620;7.548;2023-04-23T14:06:01;6.32;;;3.90;;
24483;SDS011;12643;51.620;7.548;2023-04-23T14:08:29;2.58;;;1.50;;
24483;SDS011;12643;51.620;7.548;2023-04-23T14:10:57;7.45;;;1.95;;
24483;SDS011;12643;51.620;7.548;2023-04-23T14:13:26;1.77;;;1.30;;
24483;SDS011;12643;51.620;7.548;2023-04-23T14:15:55;6.40;;;1.55;;
24483;SDS011;12643;51.620;7.548;2023-04-23T14:18:23;1.98;;;0.90;;
24483;SDS011;12643;51.620;7.548;2023-04-23T14:20:52;3.65;;;1.20;;
24483;SDS011;12643;51.620;7.548;2023-04-23T14:26:34;2.22;;;1.13;;
24483;SDS011;12643;51.620;7.548;2023-04-23T14:29:03;1.75;;;1.20;;
24483;SDS011;12643;51.620;7.548;2023-04-23T14:31:37;4.53;;;0.90;;
24483;SDS011;12643;51.620;7.548;2023-04-23T14:34:05;3.35;;;1.15;;
24483;SDS011;12643;51.620;7.548;2023-04-23T14:36:33;2.72;;;0.90;;
24483;SDS011;12643;51.620;7.548;2023-04-23T14:39:01;4.32;;;1.67;;
24483;SDS011;12643;51.620;7.548;2023-04-23T14:41:30;3.08;;;1.02;;
24483;SDS011;12643;51.620;7.548;2023-04-23T14:44:00;5.00;;;1.20;;
24483;SDS011;12643;51.620;7.548;2023-04-23T14:46:28;3.58;;;1.08;;
24483;SDS011;12643;51.620;7.548;2023-04-23T14:49:02;2.20;;;0.90;;
24483;SDS011;12643;51.620;7.548;2023-04-23T14:51:31;1.48;;;0.88;;
24483;SDS011;12643;51.620;7.548;2023-04-23T14:53:59;2.40;;;0.90;;
24483;SDS011;12643;51.620;7.548;2023-04-23T14:56:27;2.22;;;0.95;;
24483;SDS011;12643;51.620;7.548;2023-04-23T14:58:57;1.00;;;0.82;;
24483;SDS011;12643;51.620;7.548;2023-04-23T15:01:27;4.78;;;0.90;;